Terminal Aerodrome Forecast
Issued by NWS

Home | Current Version | Previous Version | Graphics & Text | Print | Product List | Glossary On
Versions: 1 2 3 4 5 6 7 8 9 10 11 12 13 14 15 16 17
000
FTUS43 KICT 200747 AAB
TAFCNU
TAF AMD
KCNU 200747Z 2008/2106 16006KT P6SM VCTS BKN070CB
      TEMPO 2008/2010 VRB20G35KT 1 1/2SM +TSRA OVC050CB
     FM201100 17006KT P6SM SCT150
     FM201600 19012KT P6SM SCT050=

USA.gov is the U.S. government's official web portal to all federal, state and local government web resources and services.